Time;durP1;ratioP1;P1;durP2;ratioP2;P2;SDS_P1;SDS_P2;PMS_P1;PMS_P2;Temp;Humidity;BMP_temperature;BMP_pressure;BME280_temperature;BME280_humidity;BME280_pressure;Samples;Min_cycle;Max_cycle;Signal;HPM_P1;HPM_P2
2021/12/07 00:01:47;;;;;;;40.97;23.85;;;;;;;0.17;100.00;100524.00;5063234;28;20062;-65
2021/12/07 00:04:14;;;;;;;40.25;23.73;;;;;;;0.27;100.00;100514.38;5064079;28;20048;-65
2021/12/07 00:06:42;;;;;;;38.67;23.88;;;;;;;0.27;100.00;100522.13;5068195;28;20520;-65
2021/12/07 00:09:13;;;;;;;36.97;23.00;;;;;;;0.23;100.00;100520.47;5040926;28;20048;-65
2021/12/07 00:11:40;;;;;;;36.65;23.85;;;;;;;0.20;100.00;100525.72;5046399;28;20076;-65
2021/12/07 00:14:21;;;;;;;41.47;24.15;;;;;;;0.21;100.00;100517.91;5060925;28;20063;-65
2021/12/07 00:16:50;;;;;;;38.53;23.35;;;;;;;0.16;100.00;100522.31;5070227;28;20044;-65
2021/12/07 00:19:17;;;;;;;41.35;24.55;;;;;;;0.14;100.00;100513.75;5060007;28;21360;-65
2021/12/07 00:21:45;;;;;;;35.17;22.75;;;;;;;0.08;100.00;100503.47;5032583;28;20483;-65
2021/12/07 00:24:13;;;;;;;36.40;22.80;;;;;;;0.13;100.00;100496.47;5058224;28;20056;-65
2021/12/07 00:26:41;;;;;;;36.30;22.45;;;;;;;0.09;100.00;100489.69;5045694;28;20143;-65
2021/12/07 00:29:10;;;;;;;36.95;22.00;;;;;;;0.07;100.00;100480.22;5057955;28;20058;-65
2021/12/07 00:31:44;;;;;;;34.97;22.38;;;;;;;-0.05;100.00;100478.69;5064310;28;20090;-65
2021/12/07 00:34:23;;;;;;;37.97;21.80;;;;;;;-0.10;100.00;100483.94;5042757;28;20603;-65
2021/12/07 00:36:50;;;;;;;36.42;22.02;;;;;;;-0.09;100.00;100472.75;5068355;28;20132;-65
2021/12/07 00:39:21;;;;;;;37.65;22.08;;;;;;;-0.10;100.00;100468.41;5045233;28;20052;-65
2021/12/07 00:41:49;;;;;;;36.03;21.95;;;;;;;-0.19;100.00;100463.41;5046641;28;20048;-65
2021/12/07 00:44:18;;;;;;;33.13;21.23;;;;;;;-0.25;100.00;100471.28;5048384;28;20135;-65
2021/12/07 00:46:45;;;;;;;33.70;19.52;;;;;;;-0.18;100.00;100470.31;5046907;28;20072;-65
2021/12/07 00:49:12;;;;;;;34.85;20.45;;;;;;;-0.24;100.00;100466.97;5046352;28;20049;-65
2021/12/07 00:51:40;;;;;;;33.15;20.35;;;;;;;-0.32;100.00;100461.91;5065822;28;20650;-65
2021/12/07 00:54:07;;;;;;;28.02;18.60;;;;;;;-0.43;100.00;100458.66;5044223;28;20064;-65
2021/12/07 00:56:35;;;;;;;29.77;18.58;;;;;;;-0.49;100.00;100463.94;5064618;28;20052;-65
2021/12/07 00:59:03;;;;;;;28.77;19.42;;;;;;;-0.57;100.00;100454.56;5047271;28;20102;-65
2021/12/07 01:01:30;;;;;;;31.20;19.17;;;;;;;-0.60;100.00;100452.03;5063516;28;20052;-65
2021/12/07 01:03:57;;;;;;;34.33;19.92;;;;;;;-0.59;100.00;100455.47;5066944;28;20508;-65
2021/12/07 01:06:33;;;;;;;31.55;19.65;;;;;;;-0.61;100.00;100460.66;5038353;28;20428;-65
2021/12/07 01:24:40;;;;;;;34.20;20.90;;;;;;;-0.66;100.00;100466.78;5061508;28;20626;-65
2021/12/07 01:25:54;;;;;;;30.98;18.90;;;;;;;-0.64;100.00;100459.84;5042161;28;20060;-65
2021/12/07 01:28:29;;;;;;;33.20;20.02;;;;;;;-0.63;100.00;100454.69;5045185;28;20110;-65
2021/12/07 01:31:07;;;;;;;29.17;18.40;;;;;;;-0.49;100.00;100445.84;5045712;28;20056;-65
2021/12/07 01:34:10;;;;;;;32.65;20.48;;;;;;;-0.57;100.00;100446.81;5061631;28;20051;-66
2021/12/07 01:48:00;;;;;;;35.00;20.58;;;;;;;-0.90;100.00;100404.28;5068815;28;20052;-65
2021/12/07 01:53:20;;;;;;;28.92;17.75;;;;;;;-0.89;100.00;100395.63;5066192;28;20102;-65
2021/12/07 01:57:52;;;;;;;35.17;19.58;;;;;;;-1.03;100.00;100393.28;5065117;28;20048;-65
2021/12/07 02:01:07;;;;;;;32.42;19.70;;;;;;;-1.10;100.00;100381.31;5047017;28;20037;-64
2021/12/07 02:03:36;;;;;;;31.35;18.92;;;;;;;-1.16;100.00;100375.41;5070151;28;20049;-66
2021/12/07 02:06:04;;;;;;;31.45;18.55;;;;;;;-1.18;100.00;100372.81;5060507;28;20056;-65
2021/12/07 02:08:31;;;;;;;33.53;19.73;;;;;;;-1.19;100.00;100372.84;5067483;28;20047;-65
2021/12/07 02:11:01;;;;;;;33.40;19.48;;;;;;;-1.19;100.00;100372.84;5040345;28;20472;-65
2021/12/07 02:16:00;;;;;;;30.98;18.60;;;;;;;-1.23;100.00;100371.19;5069860;28;20067;-66
2021/12/07 02:18:28;;;;;;;32.38;18.58;;;;;;;-1.21;100.00;100366.88;5068011;28;20135;-64
2021/12/07 02:20:55;;;;;;;30.20;17.88;;;;;;;-1.19;100.00;100360.78;5064593;28;20524;-65
2021/12/07 02:23:22;;;;;;;30.83;19.17;;;;;;;-1.24;100.00;100366.91;5049947;28;20135;-65
2021/12/07 02:25:49;;;;;;;28.73;18.17;;;;;;;-1.20;100.00;100363.41;5052304;28;20049;-65
2021/12/07 02:28:17;;;;;;;27.85;16.55;;;;;;;-1.27;100.00;100367.78;5064490;28;20048;-65
2021/12/07 02:30:44;;;;;;;25.98;16.50;;;;;;;-1.21;100.00;100354.81;5044387;28;20052;-67
2021/12/07 02:33:12;;;;;;;28.67;17.65;;;;;;;-1.22;100.00;100360.81;5034069;28;20513;-66
2021/12/07 02:35:39;;;;;;;27.25;17.33;;;;;;;-1.25;100.00;100353.16;5050332;28;20044;-64
2021/12/07 02:38:06;;;;;;;27.10;16.88;;;;;;;-1.22;100.00;100357.38;5053069;28;20094;-65
2021/12/07 02:40:33;;;;;;;28.67;16.55;;;;;;;-1.29;100.00;100351.47;5048726;28;20056;-65
2021/12/07 02:43:01;;;;;;;25.60;16.33;;;;;;;-1.20;100.00;100346.16;5067090;28;20069;-64
2021/12/07 02:45:28;;;;;;;29.08;18.25;;;;;;;-1.23;100.00;100351.38;5064005;28;20068;-64
2021/12/07 02:47:55;;;;;;;31.75;17.17;;;;;;;-1.25;100.00;100342.81;5071115;28;20052;-64
2021/12/07 02:50:22;;;;;;;28.25;18.17;;;;;;;-1.35;100.00;100344.69;5044469;28;20041;-64
2021/12/07 02:52:49;;;;;;;29.38;16.95;;;;;;;-1.35;100.00;100341.22;5053683;28;20702;-65
2021/12/07 02:55:17;;;;;;;27.45;17.52;;;;;;;-1.37;100.00;100345.56;5067175;28;20381;-65
2021/12/07 02:57:45;;;;;;;30.23;17.48;;;;;;;-1.38;100.00;100346.44;5068549;28;20101;-65
2021/12/07 03:00:19;;;;;;;29.88;18.13;;;;;;;-1.44;100.00;100349.97;5039347;28;20057;-65
2021/12/07 03:02:54;;;;;;;32.65;18.35;;;;;;;-1.41;100.00;100361.97;5070158;28;20097;-65
2021/12/07 03:06:17;;;;;;;33.05;19.50;;;;;;;-1.46;100.00;100364.63;5061974;28;20048;-65
2021/12/07 03:08:53;;;;;;;32.92;20.00;;;;;;;-1.42;100.00;100368.03;5037341;28;20052;-64
2021/12/07 03:27:58;;;;;;;36.58;21.70;;;;;;;-1.20;100.00;100376.31;5068262;28;20071;-65
2021/12/07 03:30:26;;;;;;;34.50;20.95;;;;;;;-1.24;100.00;100372.06;5064509;28;20063;-66
2021/12/07 03:32:53;;;;;;;35.85;21.90;;;;;;;-1.24;100.00;100375.50;5049556;28;20049;-65
2021/12/07 03:35:20;;;;;;;40.75;22.65;;;;;;;-1.24;100.00;100374.66;5065104;28;20431;-65
2021/12/07 03:37:48;;;;;;;36.95;22.05;;;;;;;-1.21;100.00;100375.47;5068148;28;20132;-65
2021/12/07 03:40:15;;;;;;;35.50;21.00;;;;;;;-1.19;100.00;100378.00;5060992;28;20056;-65
2021/12/07 03:42:42;;;;;;;39.80;22.85;;;;;;;-1.16;100.00;100376.25;5050152;28;20476;-65
2021/12/07 03:45:11;;;;;;;38.00;22.85;;;;;;;-1.05;100.00;100369.16;5063454;28;20880;-65
2021/12/07 03:47:39;;;;;;;36.88;22.60;;;;;;;-1.06;100.00;100375.22;5050800;28;20048;-65
2021/12/07 03:50:07;;;;;;;34.30;21.98;;;;;;;-1.04;100.00;100375.19;5051363;28;20063;-65
2021/12/07 03:52:34;;;;;;;36.58;22.45;;;;;;;-1.12;100.00;100380.50;5067685;28;20082;-65
2021/12/07 03:55:03;;;;;;;37.22;22.48;;;;;;;-1.05;100.00;100379.50;5054916;28;20154;-65
2021/12/07 03:57:30;;;;;;;36.35;22.50;;;;;;;-1.02;100.00;100383.78;5061766;28;20051;-65
2021/12/07 03:59:57;;;;;;;36.50;22.88;;;;;;;-0.97;100.00;100387.16;5047295;28;20120;-65
2021/12/07 04:02:25;;;;;;;35.28;21.83;;;;;;;-0.97;100.00;100386.28;5026954;28;20578;-65
2021/12/07 04:04:59;;;;;;;33.65;21.23;;;;;;;-0.99;100.00;100380.28;5064156;28;20063;-64
2021/12/07 04:07:26;;;;;;;35.72;22.42;;;;;;;-0.94;100.00;100378.50;5067333;28;20469;-65
2021/12/07 04:09:53;;;;;;;36.63;23.30;;;;;;;-0.95;100.00;100379.34;5044864;28;20059;-65
2021/12/07 04:12:20;;;;;;;37.45;23.10;;;;;;;-0.90;100.00;100383.59;5066120;28;20160;-65
2021/12/07 04:14:47;;;;;;;40.83;22.95;;;;;;;-0.84;100.00;100372.31;5063101;28;20055;-64
2021/12/07 04:17:14;;;;;;;35.42;22.67;;;;;;;-0.86;100.00;100372.31;5067710;28;20048;-65
2021/12/07 04:19:42;;;;;;;37.13;22.58;;;;;;;-0.86;100.00;100363.72;5045580;28;20064;-65
2021/12/07 04:22:09;;;;;;;36.25;23.08;;;;;;;-0.83;100.00;100368.84;5066500;28;20052;-65
2021/12/07 04:24:36;;;;;;;38.10;23.30;;;;;;;-0.89;100.00;100362.03;5064038;28;20044;-65
2021/12/07 04:27:03;;;;;;;32.60;21.75;;;;;;;-0.78;100.00;100375.63;5065256;28;20136;-65
2021/12/07 04:29:31;;;;;;;42.55;23.25;;;;;;;-0.80;100.00;100367.06;5051224;28;20060;-65
2021/12/07 04:31:58;;;;;;;35.75;22.33;;;;;;;-0.84;100.00;100369.72;5066141;28;20123;-65
2021/12/07 04:34:25;;;;;;;34.53;22.65;;;;;;;-0.89;100.00;100371.53;5048439;28;20102;-65
2021/12/07 04:36:52;;;;;;;35.95;23.73;;;;;;;-0.94;100.00;100363.84;5062392;28;20049;-65
2021/12/07 04:39:19;;;;;;;37.08;23.70;;;;;;;-0.84;100.00;100362.81;5058308;28;20132;-65
2021/12/07 04:41:48;;;;;;;36.95;23.52;;;;;;;-0.89;100.00;100363.78;5043970;28;20063;-65
2021/12/07 04:44:15;;;;;;;38.75;23.33;;;;;;;-0.85;100.00;100355.94;5044772;28;20059;-65
2021/12/07 04:46:51;;;;;;;42.67;24.27;;;;;;;-0.83;100.00;100350.75;5047311;28;20051;-65
2021/12/07 05:00:28;;;;;;;39.97;23.13;;;;;;;-0.97;100.00;100368.22;5061519;28;20543;-65
2021/12/07 05:03:03;;;;;;;42.25;27.00;;;;;;;-0.92;100.00;100367.25;5064220;28;20066;-65
2021/12/07 05:05:36;;;;;;;39.58;24.90;;;;;;;-0.98;100.00;100369.94;5064236;28;20140;-65
2021/12/07 05:08:08;;;;;;;41.63;25.85;;;;;;;-0.87;100.00;100374.94;5042140;28;20114;-65
2021/12/07 05:13:30;;;;;;;42.33;25.67;;;;;;;-0.84;100.00;100364.56;5057149;28;20140;-66
2021/12/07 05:16:06;;;;;;;46.63;25.38;;;;;;;-0.75;100.00;100366.13;5046076;28;20500;-66
2021/12/07 05:34:47;;;;;;;45.13;28.23;;;;;;;-0.89;100.00;100345.69;5044692;28;19924;-65
2021/12/07 05:40:05;;;;;;;46.67;28.98;;;;;;;-0.81;100.00;100356.72;5057583;28;20769;-65
2021/12/07 05:42:35;;;;;;;55.22;29.95;;;;;;;-0.74;100.00;100371.28;5064342;28;20159;-65
2021/12/07 05:45:03;;;;;;;48.90;30.25;;;;;;;-0.88;100.00;100368.91;5063185;28;20047;-65
2021/12/07 05:47:30;;;;;;;51.45;29.02;;;;;;;-0.84;100.00;100368.00;5029490;28;20062;-64
2021/12/07 05:49:58;;;;;;;45.38;28.83;;;;;;;-0.92;100.00;100379.31;5059402;28;20082;-64
2021/12/07 05:52:25;;;;;;;48.17;28.35;;;;;;;-0.95;100.00;100380.22;5061660;28;20072;-64
2021/12/07 05:54:52;;;;;;;46.90;28.05;;;;;;;-1.00;100.00;100379.44;5057441;28;20045;-65
2021/12/07 05:57:20;;;;;;;48.95;29.35;;;;;;;-0.93;100.00;100381.06;5062748;28;20522;-65
2021/12/07 05:59:47;;;;;;;46.95;29.92;;;;;;;-0.75;100.00;100385.06;5063203;28;20056;-65
2021/12/07 06:02:14;;;;;;;48.80;29.67;;;;;;;-0.86;100.00;100381.81;5066621;28;20163;-65
2021/12/07 06:04:42;;;;;;;50.25;30.00;;;;;;;-0.76;100.00;100385.97;5040188;28;20572;-65
2021/12/07 06:07:10;;;;;;;51.47;28.10;;;;;;;-0.73;100.00;100393.66;5070378;28;20124;-65
2021/12/07 06:09:38;;;;;;;52.28;29.83;;;;;;;-0.71;100.00;100386.75;5044726;28;21079;-65
2021/12/07 06:12:05;;;;;;;51.53;29.17;;;;;;;-0.70;100.00;100396.19;5069257;28;20120;-65
2021/12/07 06:14:40;;;;;;;46.65;29.75;;;;;;;-0.79;100.00;100399.78;5044276;28;20533;-65
2021/12/07 06:17:08;;;;;;;46.85;28.67;;;;;;;-0.85;100.00;100396.44;5050547;28;20064;-65
2021/12/07 06:19:35;;;;;;;49.85;29.08;;;;;;;-0.88;100.00;100399.06;5048437;28;20177;-65
2021/12/07 06:22:03;;;;;;;51.35;28.77;;;;;;;-0.87;100.00;100404.22;5069228;28;20048;-65
2021/12/07 06:24:32;;;;;;;47.65;28.10;;;;;;;-0.88;100.00;100399.06;5052408;28;20052;-65
2021/12/07 06:26:59;;;;;;;42.33;26.08;;;;;;;-0.92;100.00;100400.00;5044326;28;20045;-65
2021/12/07 06:29:26;;;;;;;46.08;27.38;;;;;;;-0.99;100.00;100396.66;5058784;28;20048;-66
2021/12/07 06:31:53;;;;;;;51.38;29.27;;;;;;;-1.03;100.00;100406.19;5058987;28;20398;-66
2021/12/07 06:34:21;;;;;;;48.58;28.73;;;;;;;-1.14;100.00;100397.72;5056313;28;20388;-66
2021/12/07 06:36:48;;;;;;;52.33;30.05;;;;;;;-1.19;100.00;100409.84;5066200;28;20048;-65
2021/12/07 06:39:15;;;;;;;48.35;28.95;;;;;;;-1.20;100.00;100412.47;5043772;28;20047;-65
2021/12/07 06:41:42;;;;;;;47.30;28.52;;;;;;;-1.17;100.00;100412.41;5034558;28;20060;-65
2021/12/07 06:44:09;;;;;;;49.70;29.70;;;;;;;-1.19;100.00;100403.84;5048582;28;20052;-65
2021/12/07 06:46:37;;;;;;;51.08;28.35;;;;;;;-1.21;100.00;100408.19;5067097;28;20123;-65
2021/12/07 06:49:04;;;;;;;50.88;29.60;;;;;;;-1.12;100.00;100405.47;5054397;28;20543;-64
2021/12/07 06:51:31;;;;;;;51.90;29.80;;;;;;;-1.20;100.00;100408.16;5047976;28;20072;-65
2021/12/07 06:53:58;;;;;;;50.63;29.65;;;;;;;-1.17;100.00;100412.41;5067884;28;20102;-65
2021/12/07 06:56:28;;;;;;;49.35;29.70;;;;;;;-1.10;100.00;100414.91;5068127;28;20040;-65
2021/12/07 06:58:55;;;;;;;53.80;30.02;;;;;;;-0.97;100.00;100409.56;5067129;28;20053;-65
2021/12/07 07:01:22;;;;;;;56.53;31.08;;;;;;;-0.96;100.00;100413.84;5066061;28;20056;-65
2021/12/07 07:03:50;;;;;;;49.47;29.48;;;;;;;-0.98;100.00;100415.59;5046200;28;20051;-65
2021/12/07 07:06:17;;;;;;;53.65;30.10;;;;;;;-1.06;100.00;100415.72;5031345;28;20140;-66
2021/12/07 07:08:44;;;;;;;53.88;29.90;;;;;;;-0.96;100.00;100419.00;5065814;28;20062;-65
2021/12/07 07:11:12;;;;;;;47.97;29.60;;;;;;;-0.90;100.00;100429.22;5045773;28;20064;-66
2021/12/07 07:13:44;;;;;;;52.45;30.67;;;;;;;-0.88;100.00;100430.94;5061949;28;20445;-66
2021/12/07 07:16:11;;;;;;;48.63;30.48;;;;;;;-0.90;100.00;100426.66;5046321;28;20147;-67
2021/12/07 07:18:39;;;;;;;51.67;30.33;;;;;;;-0.80;100.00;100425.66;5036037;28;20998;-66
2021/12/07 07:21:07;;;;;;;45.67;28.27;;;;;;;-0.73;100.00;100431.56;5064419;28;20182;-66
2021/12/07 07:23:34;;;;;;;55.95;30.58;;;;;;;-0.79;100.00;100438.53;5064859;28;20052;-66
2021/12/07 07:30:10;;;;;;;47.75;28.73;;;;;;;-0.68;100.00;100455.59;5062974;28;20055;-66
2021/12/07 07:32:37;;;;;;;51.15;29.27;;;;;;;-0.62;100.00;100452.94;5043246;28;20135;-66
2021/12/07 07:35:06;;;;;;;49.90;29.77;;;;;;;-0.60;100.00;100446.00;5073505;28;20108;-66
2021/12/07 07:37:34;;;;;;;49.10;29.90;;;;;;;-0.60;100.00;100458.94;5071457;28;20646;-66
2021/12/07 07:40:06;;;;;;;49.58;29.45;;;;;;;-0.45;100.00;100450.94;5068477;28;20057;-67
2021/12/07 07:42:36;;;;;;;45.85;28.50;;;;;;;-0.33;100.00;100452.44;5050307;28;20536;-66
2021/12/07 07:45:04;;;;;;;47.55;28.85;;;;;;;-0.28;100.00;100451.50;5067321;28;20131;-66
2021/12/07 07:47:31;;;;;;;45.03;26.08;;;;;;;-0.22;100.00;100457.47;5046934;28;20153;-65
2021/12/07 07:49:59;;;;;;;46.92;27.77;;;;;;;-0.19;100.00;100457.38;5026402;28;20069;-65
2021/12/07 07:52:26;;;;;;;42.67;27.05;;;;;;;-0.25;100.00;100455.78;5038384;28;20472;-65
2021/12/07 07:54:53;;;;;;;44.90;26.00;;;;;;;-0.35;100.00;100468.00;5034698;28;20049;-65
2021/12/07 07:57:20;;;;;;;36.40;24.27;;;;;;;-0.34;100.00;100468.84;5055940;28;20079;-65
2021/12/07 07:59:47;;;;;;;41.20;25.15;;;;;;;-0.40;100.00;100463.81;5046520;28;20898;-65
2021/12/07 08:02:14;;;;;;;42.00;24.88;;;;;;;-0.42;100.00;100468.13;5049304;28;20048;-64
2021/12/07 08:04:42;;;;;;;41.45;25.08;;;;;;;-0.40;100.00;100461.22;5051827;28;20044;-65
2021/12/07 08:07:09;;;;;;;43.65;24.67;;;;;;;-0.36;100.00;100466.31;5037823;28;20057;-64
2021/12/07 08:09:37;;;;;;;45.78;25.25;;;;;;;-0.32;100.00;100461.91;5054300;28;20067;-65
2021/12/07 08:12:06;;;;;;;41.72;25.02;;;;;;;-0.36;100.00;100466.31;5049973;28;20151;-65
2021/12/07 08:14:34;;;;;;;45.83;26.20;;;;;;;-0.28;100.00;100467.00;5025462;28;20875;-64
2021/12/07 08:17:01;;;;;;;44.25;25.95;;;;;;;-0.30;100.00;100478.28;5055283;28;21077;-64
2021/12/07 08:19:29;;;;;;;41.08;25.13;;;;;;;-0.34;100.00;100474.03;5048379;28;20512;-65
2021/12/07 08:21:56;;;;;;;44.30;27.10;;;;;;;-0.34;100.00;100474.03;5033592;28;20080;-65
2021/12/07 08:24:23;;;;;;;37.53;24.42;;;;;;;-0.36;100.00;100474.06;5016203;28;20053;-65
2021/12/07 08:26:50;;;;;;;41.58;25.02;;;;;;;-0.37;100.00;100482.69;5033378;28;20071;-65
2021/12/07 08:29:18;;;;;;;42.03;24.98;;;;;;;-0.38;100.00;100480.97;5030832;28;20139;-65
2021/12/07 08:31:45;;;;;;;39.40;25.40;;;;;;;-0.48;100.00;100481.16;5050019;28;20448;-64
2021/12/07 08:34:12;;;;;;;39.42;25.15;;;;;;;-0.46;100.00;100487.16;5050807;28;20412;-65
2021/12/07 08:36:39;;;;;;;45.70;26.80;;;;;;;-0.43;100.00;100479.34;5053053;28;20080;-64
2021/12/07 08:39:08;;;;;;;39.47;24.30;;;;;;;-0.42;100.00;100475.88;5010631;28;20057;-65
2021/12/07 08:41:35;;;;;;;42.40;25.23;;;;;;;-0.33;100.00;100475.72;5054684;28;20098;-65
2021/12/07 08:44:03;;;;;;;41.50;24.92;;;;;;;-0.34;100.00;100472.28;5054694;28;20052;-65
2021/12/07 08:46:30;;;;;;;42.20;24.80;;;;;;;-0.30;100.00;100475.69;5055329;28;20064;-65
2021/12/07 08:48:57;;;;;;;44.15;26.05;;;;;;;-0.26;100.00;100477.34;5048692;28;20062;-65
2021/12/07 08:51:24;;;;;;;40.70;25.45;;;;;;;-0.29;100.00;100475.66;5046269;28;20056;-64
2021/12/07 08:53:58;;;;;;;41.75;25.65;;;;;;;-0.24;100.00;100473.00;5039201;28;21388;-63
2021/12/07 09:01:57;;;;;;;37.42;23.45;;;;;;;-0.17;99.93;100476.34;5055135;28;20052;-67
2021/12/07 09:04:25;;;;;;;40.50;23.70;;;;;;;-0.17;99.98;100469.44;5031829;28;20093;-66
2021/12/07 09:06:52;;;;;;;39.42;24.35;;;;;;;-0.11;98.97;100482.25;5050522;28;20036;-66
2021/12/07 09:09:20;;;;;;;38.45;24.48;;;;;;;-0.05;98.61;100476.94;5031253;28;20055;-66
2021/12/07 09:11:47;;;;;;;38.33;22.85;;;;;;;-0.16;98.99;100488.38;5051508;28;20048;-65
2021/12/07 09:14:17;;;;;;;46.00;25.13;;;;;;;-0.12;100.00;100492.63;5033313;28;20130;-64
2021/12/07 09:16:46;;;;;;;41.22;24.10;;;;;;;-0.02;99.61;100492.44;5036461;28;20049;-64
2021/12/07 09:19:14;;;;;;;42.30;24.23;;;;;;;0.03;98.58;100484.59;5046732;28;20095;-64
2021/12/07 09:21:41;;;;;;;39.08;24.50;;;;;;;0.06;98.38;100494.91;5036407;28;20365;-64
2021/12/07 09:24:09;;;;;;;39.92;23.58;;;;;;;0.01;98.43;100485.50;5049242;28;20059;-64
2021/12/07 09:26:36;;;;;;;40.95;24.23;;;;;;;0.03;98.40;100479.41;5050700;28;20395;-64
2021/12/07 09:29:05;;;;;;;35.60;22.73;;;;;;;0.05;98.64;100484.59;5035488;28;20768;-64
2021/12/07 09:31:33;;;;;;;38.30;24.17;;;;;;;0.09;97.89;100484.50;5050303;28;20056;-64
2021/12/07 09:34:02;;;;;;;40.60;24.95;;;;;;;0.08;98.05;100481.91;5051977;28;20151;-65
2021/12/07 09:36:29;;;;;;;37.25;24.27;;;;;;;0.11;98.27;100495.66;5031493;28;20044;-65
2021/12/07 09:38:56;;;;;;;41.35;25.45;;;;;;;0.11;97.28;100487.03;5030604;28;20047;-65
2021/12/07 09:41:24;;;;;;;43.88;26.17;;;;;;;0.09;96.97;100481.03;5051278;28;20616;-65
2021/12/07 09:43:51;;;;;;;41.60;25.90;;;;;;;0.05;97.03;100485.44;5033659;28;20052;-66
2021/12/07 09:46:19;;;;;;;41.33;24.42;;;;;;;0.03;97.62;100483.75;5032563;28;20087;-65
2021/12/07 09:48:47;;;;;;;42.15;25.85;;;;;;;0.11;97.89;100481.88;5033526;28;20052;-65
2021/12/07 09:51:17;;;;;;;39.70;23.33;;;;;;;0.19;97.14;100480.84;5052001;28;20346;-65
2021/12/07 09:53:46;;;;;;;46.15;25.58;;;;;;;0.01;97.18;100482.94;5052090;28;20539;-65
2021/12/07 09:56:14;;;;;;;42.70;24.73;;;;;;;0.09;97.20;100470.69;5032771;28;20090;-65
2021/12/07 09:58:43;;;;;;;39.75;24.85;;;;;;;0.07;97.22;100478.47;5035225;28;20143;-65
2021/12/07 10:01:11;;;;;;;38.22;23.10;;;;;;;0.21;97.58;100473.03;5031082;28;20064;-65
2021/12/07 10:03:39;;;;;;;45.65;26.17;;;;;;;0.16;97.75;100475.72;5031405;28;20071;-65
2021/12/07 10:06:08;;;;;;;42.03;25.17;;;;;;;0.22;97.58;100474.75;5053166;28;20185;-65
2021/12/07 10:08:36;;;;;;;42.53;24.75;;;;;;;0.21;97.44;100481.66;5034192;28;20060;-66
2021/12/07 10:11:06;;;;;;;42.53;26.40;;;;;;;0.33;97.04;100484.91;5030449;28;20064;-67
2021/12/07 10:13:34;;;;;;;43.20;24.83;;;;;;;0.33;96.15;100483.19;5050616;28;20179;-66
2021/12/07 10:16:06;;;;;;;42.45;24.70;;;;;;;0.47;96.01;100480.31;5031467;28;20063;-65
2021/12/07 10:18:36;;;;;;;42.05;25.60;;;;;;;0.55;96.46;100478.44;5014608;28;20444;-65
2021/12/07 10:21:16;;;;;;;43.75;26.05;;;;;;;0.73;95.38;100479.78;5047494;28;21174;-66
2021/12/07 10:23:50;;;;;;;48.35;26.95;;;;;;;0.56;95.16;100484.47;5052976;28;20156;-65
2021/12/07 10:26:23;;;;;;;42.15;26.50;;;;;;;0.59;95.29;100489.59;5022845;28;20071;-65
2021/12/07 10:28:56;;;;;;;42.65;24.10;;;;;;;0.53;94.47;100500.91;5048867;28;20213;-65
2021/12/07 10:31:28;;;;;;;44.30;26.52;;;;;;;0.29;95.37;100497.06;5051853;28;20412;-66
2021/12/07 10:34:00;;;;;;;42.20;25.08;;;;;;;0.36;95.26;100496.06;5050815;28;20210;-65
2021/12/07 10:36:31;;;;;;;41.95;26.10;;;;;;;0.35;95.55;100481.41;5043511;28;20166;-65
2021/12/07 10:39:12;;;;;;;43.58;26.20;;;;;;;0.39;95.65;100496.00;5047802;28;20198;-64
2021/12/07 10:41:55;;;;;;;45.28;26.50;;;;;;;0.48;95.71;100500.16;5031850;28;20124;-64
2021/12/07 10:44:27;;;;;;;41.40;25.60;;;;;;;0.52;94.79;100483.66;5051368;28;20148;-64
2021/12/07 10:47:05;;;;;;;41.72;24.33;;;;;;;0.51;94.72;100481.97;5059883;28;20055;-64
2021/12/07 10:49:51;;;;;;;46.63;26.08;;;;;;;0.50;94.18;100475.94;5041045;28;20040;-64
2021/12/07 10:52:33;;;;;;;35.13;21.20;;;;;;;0.44;94.42;100470.84;5033999;28;20537;-64
2021/12/07 10:55:19;;;;;;;44.08;25.90;;;;;;;0.48;94.69;100463.88;5043018;28;20461;-68
2021/12/07 10:57:50;;;;;;;43.78;26.98;;;;;;;0.49;95.04;100463.84;5047865;28;20465;-59
2021/12/07 11:00:43;;;;;;;45.20;26.50;;;;;;;0.67;98.11;100467.78;5066838;28;20110;-66
2021/12/07 11:03:14;;;;;;;42.97;27.42;;;;;;;0.53;96.08;100466.38;5058761;28;20708;-66
2021/12/07 11:05:46;;;;;;;40.72;25.40;;;;;;;0.54;95.31;100468.97;5063354;28;20055;-66
2021/12/07 11:08:14;;;;;;;42.60;25.90;;;;;;;0.68;95.85;100463.50;5047107;28;20055;-66
2021/12/07 11:10:45;;;;;;;46.55;27.70;;;;;;;0.55;95.13;100459.44;5023967;28;20072;-66
2021/12/07 11:13:23;;;;;;;40.55;25.50;;;;;;;0.58;95.34;100459.38;5059759;28;20052;-65
2021/12/07 11:15:56;;;;;;;46.85;27.58;;;;;;;0.54;94.67;100461.19;5046910;28;20098;-66
2021/12/07 11:18:26;;;;;;;41.60;25.80;;;;;;;0.58;95.57;100467.13;5065218;28;20231;-64
2021/12/07 11:20:57;;;;;;;43.42;26.63;;;;;;;0.54;95.63;100462.91;5023263;28;20471;-64
2021/12/07 11:23:28;;;;;;;44.92;26.85;;;;;;;0.57;95.73;100463.69;5060763;28;20059;-64
2021/12/07 11:31:53;;;;;;;42.72;26.77;;;;;;;0.66;94.74;100465.25;5049356;28;20144;-65
2021/12/07 11:34:22;;;;;;;46.80;27.58;;;;;;;0.62;94.52;100463.59;4993157;28;20056;-65
2021/12/07 11:36:50;;;;;;;46.42;27.67;;;;;;;0.56;94.73;100464.59;5065846;28;20068;-65
2021/12/07 11:39:34;;;;;;;46.17;26.60;;;;;;;0.42;94.89;100464.88;5040108;28;20071;-65
2021/12/07 11:42:05;;;;;;;46.47;27.35;;;;;;;0.45;95.88;100466.53;5063109;28;20120;-65
2021/12/07 11:44:49;;;;;;;49.53;28.52;;;;;;;0.48;95.53;100467.31;5043984;28;20584;-64
2021/12/07 11:47:29;;;;;;;47.22;27.48;;;;;;;0.54;95.31;100463.78;5061624;28;20048;-65
2021/12/07 11:49:58;;;;;;;45.58;28.25;;;;;;;0.53;95.33;100463.78;5054705;28;20215;-64
2021/12/07 11:52:25;;;;;;;43.58;27.30;;;;;;;0.60;95.61;100457.63;5045810;28;20881;-64
2021/12/07 11:54:52;;;;;;;51.00;30.52;;;;;;;0.62;95.22;100455.84;5042054;28;20060;-64
2021/12/07 11:57:20;;;;;;;49.92;29.08;;;;;;;0.69;94.43;100445.31;5047803;28;20048;-65
2021/12/07 11:59:49;;;;;;;49.55;27.88;;;;;;;0.76;93.65;100446.03;5061097;28;20117;-64
2021/12/07 12:02:22;;;;;;;50.95;28.83;;;;;;;0.73;93.40;100451.28;5038529;28;20062;-65
2021/12/07 12:04:50;;;;;;;45.75;26.58;;;;;;;0.66;93.91;100453.13;5035633;28;20056;-65
2021/12/07 12:07:19;;;;;;;49.15;28.85;;;;;;;0.55;94.31;100452.53;5037805;28;20048;-64
2021/12/07 12:09:51;;;;;;;52.55;29.70;;;;;;;0.54;94.82;100450.84;5050156;28;20110;-65
2021/12/07 12:12:31;;;;;;;50.88;29.38;;;;;;;0.62;95.54;100453.25;5055002;28;20061;-64
2021/12/07 12:15:24;;;;;;;52.15;30.90;;;;;;;0.60;94.73;100445.50;5034507;28;20052;-64
2021/12/07 12:17:51;;;;;;;53.58;30.08;;;;;;;0.58;95.05;100439.50;5031441;28;20067;-64
2021/12/07 12:21:00;;;;;;;53.50;30.27;;;;;;;0.64;94.70;100439.38;5048838;28;20631;-64
2021/12/07 12:23:48;;;;;;;51.80;30.00;;;;;;;0.60;95.05;100426.53;5029384;28;20060;-64
2021/12/07 12:26:22;;;;;;;51.67;29.58;;;;;;;0.45;95.65;100415.63;5031681;28;20147;-66
2021/12/07 12:28:50;;;;;;;50.80;29.23;;;;;;;0.60;95.37;100422.19;5054578;28;20218;-64
2021/12/07 12:31:18;;;;;;;53.22;30.65;;;;;;;0.62;95.00;100411.78;5035346;28;20663;-64
2021/12/07 12:33:50;;;;;;;52.17;28.55;;;;;;;0.68;94.62;100411.69;5051610;28;20056;-65
2021/12/07 12:36:22;;;;;;;50.85;29.92;;;;;;;0.64;95.83;100418.66;5052612;28;20048;-64
2021/12/07 12:39:02;;;;;;;51.53;30.85;;;;;;;0.65;95.60;100433.31;5051738;28;20070;-64
2021/12/07 12:41:29;;;;;;;59.78;32.58;;;;;;;0.73;95.33;100433.16;5051485;28;20527;-64
2021/12/07 12:44:06;;;;;;;52.92;30.52;;;;;;;0.86;94.82;100438.94;5033598;28;20067;-64
2021/12/07 12:46:35;;;;;;;58.53;31.88;;;;;;;1.09;94.25;100439.25;5049207;28;20079;-66
2021/12/07 12:49:07;;;;;;;54.70;31.90;;;;;;;1.18;93.07;100430.41;5033872;28;20048;-64
2021/12/07 12:51:50;;;;;;;51.53;30.73;;;;;;;1.19;92.58;100420.00;5055405;28;20106;-64
2021/12/07 12:54:19;;;;;;;56.10;31.88;;;;;;;1.14;92.13;100433.97;5052496;28;20706;-64
2021/12/07 12:56:48;;;;;;;55.33;31.25;;;;;;;1.14;92.49;100434.81;5054717;28;20486;-64
2021/12/07 12:59:15;;;;;;;52.45;30.35;;;;;;;1.12;91.64;100438.31;5053112;28;20052;-64